Time;durP1;ratioP1;P1;durP2;ratioP2;P2;SDS_P1;SDS_P2;PMS_P1;PMS_P2;Temp;Humidity;BMP_temperature;BMP_pressure;BME280_temperature;BME280_humidity;BME280_pressure;Samples;Min_cycle;Max_cycle;Signal;HPM_P1;HPM_P2
2021/03/28 00:00:02;;;;;;;15.20;9.50;;;;;;;6.41;100.00;100071.84;4369086;80;28616;-81
2021/03/28 00:06:31;;;;;;;12.65;7.85;;;;;;;6.13;100.00;100069.20;4350876;80;28541;-81
2021/03/28 00:12:37;;;;;;;12.78;7.75;;;;;;;5.95;100.00;100068.60;4351263;81;28542;-81
2021/03/28 00:19:02;;;;;;;;;;;;;;;5.89;100.00;100067.47;4351064;80;28633;-82
2021/03/28 00:25:15;;;;;;;11.05;7.20;;;;;;;5.80;100.00;100062.69;4346831;80;47116;-82
2021/03/28 00:31:34;;;;;;;13.15;8.58;;;;;;;5.82;100.00;100059.82;4334794;80;28607;-81
2021/03/28 00:37:40;;;;;;;14.33;8.33;;;;;;;5.84;100.00;100066.66;4365717;81;28645;-82
2021/03/28 00:43:59;;;;;;;13.83;8.40;;;;;;;5.63;100.00;100065.09;4370264;81;28577;-85
2021/03/28 00:50:26;;;;;;;14.78;7.72;;;;;;;5.60;100.00;100076.11;4359898;81;28578;-83
2021/03/28 00:56:51;;;;;;;12.73;7.90;;;;;;;5.75;100.00;100078.37;4355764;80;28543;-83
2021/03/28 01:03:10;;;;;;;16.15;8.48;;;;;;;5.88;100.00;100079.64;4591591;76;85388;-84
2021/03/28 01:09:54;;;;;;;13.28;8.85;;;;;;;6.02;100.00;100091.45;4494859;78;28542;-83
2021/03/28 01:16:35;;;;;;;16.07;8.88;;;;;;;6.02;100.00;100100.30;4489801;78;28988;-82
2021/03/28 01:23:10;;;;;;;15.05;9.28;;;;;;;5.71;100.00;100103.75;4490987;78;28637;-83
2021/03/28 01:29:32;;;;;;;17.98;10.15;;;;;;;5.85;100.00;100116.36;4507655;78;28542;-82
2021/03/28 01:35:39;;;;;;;9.53;5.33;;;;;;;5.94;100.00;100121.17;4504902;78;28607;-82
2021/03/28 01:41:46;;;;;;;9.03;5.22;;;;;;;5.32;100.00;100102.71;4488305;78;28539;-82
2021/03/28 01:48:21;;;;;;;10.48;5.30;;;;;;;5.53;100.00;100111.47;4487638;78;28542;-82
2021/03/28 01:54:53;;;;;;;9.63;4.55;;;;;;;5.39;100.00;100110.86;4488512;78;28562;-83
2021/03/28 02:01:10;;;;;;;9.23;3.67;;;;;;;5.62;100.00;100094.11;4514631;78;28530;-81
2021/03/28 02:07:44;;;;;;;9.20;4.33;;;;;;;5.66;100.00;100110.09;4515088;78;28559;-81
2021/03/28 02:14:25;;;;;;;7.30;3.45;;;;;;;5.48;100.00;100111.17;4514489;79;28550;-81
2021/03/28 02:20:45;;;;;;;11.57;4.87;;;;;;;5.51;100.00;100105.48;4511187;78;28550;-82
2021/03/28 02:27:04;;;;;;;12.05;5.72;;;;;;;5.53;100.00;100102.66;4492996;78;28566;-81
2021/03/28 02:33:20;;;;;;;11.83;6.67;;;;;;;5.38;100.00;100115.86;4514051;79;28538;-81
2021/03/28 02:39:52;;;;;;;11.43;6.20;;;;;;;5.39;100.00;100117.01;4513324;79;28926;-81
2021/03/28 02:46:21;;;;;;;12.47;6.15;;;;;;;5.40;100.00;100125.34;4476785;78;28542;-80
2021/03/28 02:53:11;;;;;;;12.65;6.95;;;;;;;5.60;100.00;100140.95;4504157;78;28612;-80
2021/03/28 03:00:10;;;;;;;11.45;6.15;;;;;;;5.56;100.00;100144.47;4486675;78;28547;-80
2021/03/28 03:06:45;;;;;;;10.82;5.72;;;;;;;5.51;100.00;100158.84;4513991;78;28570;-82
2021/03/28 03:13:29;;;;;;;11.73;5.90;;;;;;;5.29;100.00;100165.70;4502231;78;28542;-82
2021/03/28 03:20:00;;;;;;;8.73;4.70;;;;;;;5.36;100.00;100185.84;4511681;78;28559;-81
2021/03/28 03:26:51;;;;;;;10.65;4.60;;;;;;;5.24;100.00;100192.86;4509325;78;28574;-82
2021/03/28 03:33:29;;;;;;;9.03;4.22;;;;;;;5.09;100.00;100211.36;4497410;78;28643;-83
2021/03/28 03:39:36;;;;;;;10.32;4.45;;;;;;;4.32;100.00;100216.37;4507497;78;28546;-83
2021/03/28 03:46:05;;;;;;;10.35;4.30;;;;;;;3.98;100.00;100235.38;4502094;78;28547;-84
2021/03/28 03:52:21;;;;;;;14.90;5.25;;;;;;;3.89;100.00;100228.34;4510879;78;28632;-83
2021/03/28 03:58:36;;;;;;;14.03;5.50;;;;;;;3.70;100.00;100229.41;4392208;80;28610;-83
2021/03/28 04:04:59;;;;;;;11.70;6.80;;;;;;;3.71;100.00;100229.74;4398403;80;28631;-83
2021/03/28 04:11:24;;;;;;;15.63;7.40;;;;;;;3.82;100.00;100233.47;4387163;80;28579;-84
2021/03/28 04:18:15;;;;;;;14.23;6.80;;;;;;;3.73;100.00;100253.02;4368973;81;28600;-82
2021/03/28 04:24:30;;;;;;;15.98;8.18;;;;;;;3.82;100.00;100259.22;4368812;81;28577;-83
2021/03/28 04:30:59;;;;;;;14.98;7.60;;;;;;;3.66;100.00;100270.59;4367734;81;28555;-82
2021/03/28 04:37:38;;;;;;;13.85;7.35;;;;;;;3.66;100.00;100281.23;4350899;80;28571;-83
2021/03/28 04:44:26;;;;;;;16.35;6.97;;;;;;;3.44;100.00;100292.70;4317878;81;28611;-81
2021/03/28 04:51:00;;;;;;;12.00;6.70;;;;;;;3.40;100.00;100300.66;4355019;81;28680;-82
2021/03/28 04:57:41;;;;;;;15.30;6.65;;;;;;;3.43;100.00;100309.13;4361859;80;28609;-83
2021/03/28 05:04:14;;;;;;;11.33;6.12;;;;;;;3.40;100.00;100309.45;4353837;80;28583;-82
2021/03/28 05:10:32;;;;;;;12.40;5.58;;;;;;;3.70;100.00;100313.20;4370018;81;28925;-83
2021/03/28 05:17:12;;;;;;;12.65;4.90;;;;;;;4.03;100.00;100306.77;4368251;81;28554;-82
2021/03/28 05:24:12;;;;;;;9.50;3.87;;;;;;;4.30;100.00;100325.72;4369262;80;28590;-80
2021/03/28 05:30:35;;;;;;;10.15;4.50;;;;;;;4.51;100.00;100318.31;4361220;80;28605;-80
2021/03/28 05:36:54;;;;;;;10.00;4.03;;;;;;;4.67;100.00;100338.37;4358664;81;28643;-83
2021/03/28 05:43:39;;;;;;;10.50;3.83;;;;;;;4.73;100.00;100336.38;4313299;80;28540;-82
2021/03/28 05:50:02;;;;;;;11.75;4.50;;;;;;;4.78;100.00;100343.89;4368159;81;28551;-82
2021/03/28 05:56:35;;;;;;;7.92;4.03;;;;;;;4.91;100.00;100353.29;4343719;81;28546;-81
2021/03/28 06:02:46;;;;;;;7.92;4.22;;;;;;;5.02;100.00;100365.80;4311116;80;28670;-82
2021/03/28 06:09:45;;;;;;;10.13;4.35;;;;;;;5.14;100.00;100371.67;4358348;81;28553;-80
2021/03/28 06:16:15;;;;;;;11.22;4.87;;;;;;;5.22;100.00;100374.86;4128083;83;28641;-82
2021/03/28 06:22:59;;;;;;;10.55;4.90;;;;;;;5.33;100.00;100373.73;4302986;81;28631;-82
2021/03/28 06:29:33;;;;;;;8.85;5.15;;;;;;;5.30;100.00;100393.55;4329012;81;28714;-80
2021/03/28 06:36:06;;;;;;;14.38;5.87;;;;;;;5.32;100.00;100405.88;4350006;81;28544;-78
2021/03/28 06:42:26;;;;;;;10.72;5.12;;;;;;;5.34;100.00;100407.88;4350863;80;28638;-81
2021/03/28 06:49:22;;;;;;;9.75;5.12;;;;;;;5.51;100.00;100409.59;4349506;80;28583;-84
2021/03/28 06:55:38;;;;;;;13.28;5.70;;;;;;;6.02;100.00;100417.16;4358168;81;28584;-87
2021/03/28 07:02:17;;;;;;;12.05;5.55;;;;;;;6.01;100.00;100414.98;4349949;81;28607;-87
2021/03/28 07:08:31;;;;;;;10.45;5.42;;;;;;;6.05;100.00;100417.67;4366891;80;28603;-85
2021/03/28 07:14:58;;;;;;;13.55;5.80;;;;;;;6.39;100.00;100414.47;4353098;81;28603;-88
2021/03/28 07:21:38;;;;;;;10.38;5.37;;;;;;;6.52;100.00;100421.97;4353192;81;28571;-87
2021/03/28 07:28:31;;;;;;;11.10;5.55;;;;;;;6.68;100.00;100421.91;4331415;81;28583;-89
2021/03/28 07:35:13;;;;;;;10.43;5.92;;;;;;;6.52;100.00;100432.14;4342851;81;28605;-84
2021/03/28 07:41:37;;;;;;;10.50;5.62;;;;;;;6.41;100.00;100444.03;4334002;80;28549;-82
2021/03/28 07:47:48;;;;;;;9.60;5.60;;;;;;;6.77;100.00;100448.62;4344568;81;28642;-82
2021/03/28 07:54:36;;;;;;;10.88;5.62;;;;;;;6.55;100.00;100454.50;4343046;80;28673;-81
2021/03/28 08:01:19;;;;;;;9.85;5.60;;;;;;;6.04;100.00;100458.72;4349295;80;29067;-83
2021/03/28 08:07:52;;;;;;;9.73;5.20;;;;;;;6.28;100.00;100475.25;4365380;80;28615;-80
2021/03/28 08:14:02;;;;;;;11.28;6.22;;;;;;;6.41;100.00;100468.08;4365501;80;28589;-81
2021/03/28 08:20:56;;;;;;;10.20;6.00;;;;;;;6.88;100.00;100467.49;4367213;80;28573;-77
2021/03/28 08:27:52;;;;;;;6.97;5.05;;;;;;;6.86;100.00;100481.02;4346576;80;28607;-77
2021/03/28 08:34:20;;;;;;;7.58;4.47;;;;;;;6.74;100.00;100490.41;4337341;81;28653;-79
2021/03/28 08:40:44;;;;;;;8.65;4.58;;;;;;;6.77;100.00;100482.89;4328355;81;28624;-79
2021/03/28 08:46:57;;;;;;;12.25;5.50;;;;;;;7.14;100.00;100489.13;4336480;80;28566;-80
2021/03/28 08:53:35;;;;;;;8.63;5.30;;;;;;;7.12;100.00;100489.28;4354330;80;28625;-81
2021/03/28 09:00:16;;;;;;;8.23;5.00;;;;;;;7.58;100.00;100481.08;4330564;80;28579;-81
2021/03/28 09:06:41;;;;;;;6.90;4.37;;;;;;;8.02;100.00;100480.45;4347846;81;28575;-81
2021/03/28 09:13:15;;;;;;;6.83;4.03;;;;;;;8.15;100.00;100485.22;4339656;80;28613;-80
2021/03/28 09:20:09;;;;;;;10.13;5.25;;;;;;;7.77;100.00;100489.16;4287786;81;28599;-77
2021/03/28 09:26:54;;;;;;;7.65;4.60;;;;;;;7.80;100.00;100491.47;4334329;80;28566;-80
2021/03/28 09:33:22;;;;;;;6.92;4.28;;;;;;;7.89;100.00;100502.45;4343208;80;28586;-81
2021/03/28 09:39:37;;;;;;;7.97;4.50;;;;;;;8.18;100.00;100491.55;4345874;81;28575;-82
2021/03/28 09:45:56;;;;;;;8.73;4.50;;;;;;;7.67;100.00;100500.10;4342838;81;28653;-80
2021/03/28 09:52:29;;;;;;;7.87;4.00;;;;;;;7.49;100.00;100497.66;4370898;80;28619;-82
2021/03/28 09:59:05;;;;;;;7.10;4.05;;;;;;;7.46;100.00;100509.57;4319164;81;28544;-82
2021/03/28 10:05:19;;;;;;;9.65;4.12;;;;;;;7.60;100.00;100497.78;4335505;82;28765;-84
2021/03/28 10:11:38;;;;;;;6.47;3.52;;;;;;;8.23;100.00;100493.69;4307560;81;28601;-80
2021/03/28 10:18:06;;;;;;;7.25;3.92;;;;;;;8.39;100.00;100499.94;4363432;80;28623;-84
2021/03/28 10:24:54;;;;;;;7.97;4.22;;;;;;;8.75;94.64;100506.84;4360600;81;28646;-82
2021/03/28 10:31:22;;;;;;;5.67;4.10;;;;;;;9.04;100.00;100486.40;4374973;80;28611;-83
2021/03/28 10:37:38;;;;;;;7.33;3.75;;;;;;;9.49;94.60;100490.38;4364008;80;28543;-83
2021/03/28 10:44:10;;;;;;;6.10;3.50;;;;;;;9.49;82.92;100482.33;4364893;80;28614;-82
2021/03/28 10:51:10;;;;;;;5.42;3.75;;;;;;;9.62;81.57;100480.31;4373645;80;28556;-85
2021/03/28 10:58:02;;;;;;;6.25;3.22;;;;;;;9.96;79.20;100481.17;4336308;81;28558;-82
2021/03/28 11:04:37;;;;;;;5.65;2.85;;;;;;;9.64;79.49;100476.11;4335758;81;28551;-82
2021/03/28 11:11:00;;;;;;;5.10;2.77;;;;;;;10.02;78.90;100466.45;4380920;80;28584;-80
2021/03/28 11:17:20;;;;;;;4.87;2.55;;;;;;;9.87;68.77;100486.66;4374393;80;28584;-81
2021/03/28 11:23:43;;;;;;;4.92;2.30;;;;;;;9.68;66.77;100488.13;4366360;80;28653;-80
2021/03/28 11:30:34;;;;;;;6.40;2.60;;;;;;;9.56;64.61;100478.38;4295794;81;28639;-82
2021/03/28 11:36:53;;;;;;;5.05;2.65;;;;;;;10.05;68.35;100481.37;4366254;80;28587;-83
2021/03/28 11:44:00;;;;;;;4.25;2.37;;;;;;;10.12;65.89;100469.34;4391646;80;85888;-83
2021/03/28 11:50:20;;;;;;;5.58;2.80;;;;;;;10.19;66.31;100464.33;4315757;81;28569;-83
2021/03/28 11:57:02;;;;;;;4.65;2.60;;;;;;;9.94;66.36;100453.67;4303766;81;28635;-82
2021/03/28 12:03:25;;;;;;;5.10;2.77;;;;;;;10.23;68.20;100451.88;4286366;81;28607;-82
2021/03/28 12:09:32;;;;;;;5.55;2.52;;;;;;;10.14;57.08;100460.56;4305554;82;28612;-79
2021/03/28 12:15:49;;;;;;;6.72;2.87;;;;;;;10.58;61.19;100445.22;4308267;81;28552;-77
2021/03/28 12:21:57;;;;;;;4.15;2.62;;;;;;;10.86;60.88;100437.12;4220809;84;28640;-78
2021/03/28 12:28:22;;;;;;;5.22;2.98;;;;;;;10.70;54.40;100433.41;4283746;83;28692;-77
2021/03/28 12:34:36;;;;;;;5.93;3.00;;;;;;;10.40;57.99;100430.37;4276590;81;28638;-79
2021/03/28 12:40:39;;;;;;;4.92;2.60;;;;;;;10.14;57.60;100395.56;4264759;81;41233;-79
2021/03/28 12:46:58;;;;;;;6.67;3.15;;;;;;;10.74;56.29;100426.09;4237958;82;28669;-78
2021/03/28 12:53:22;;;;;;;5.67;2.77;;;;;;;10.58;56.64;100431.28;4243748;82;28558;-77
2021/03/28 12:59:38;;;;;;;5.28;2.67;;;;;;;10.64;60.49;100418.91;4216420;82;28578;-76
2021/03/28 13:06:06;;;;;;;5.00;2.85;;;;;;;10.69;60.27;100422.34;4184685;84;28567;-77
2021/03/28 13:12:17;;;;;;;5.25;2.95;;;;;;;10.56;54.52;100424.43;4177496;84;28572;-77
2021/03/28 13:18:23;;;;;;;6.05;2.60;;;;;;;10.82;57.30;100422.41;4279979;81;28559;-78
2021/03/28 13:24:26;;;;;;;7.10;2.80;;;;;;;10.58;54.66;100424.55;4218687;83;28632;-77
2021/03/28 13:30:36;;;;;;;6.08;2.45;;;;;;;10.85;55.91;100424.70;4263158;81;28609;-77
2021/03/28 13:36:43;;;;;;;5.72;2.42;;;;;;;10.46;51.93;100429.64;4284203;81;28621;-79
2021/03/28 13:43:04;;;;;;;6.17;2.92;;;;;;;10.86;52.92;100412.90;4233276;82;28563;-79
2021/03/28 13:49:07;;;;;;;5.40;2.83;;;;;;;10.87;53.06;100410.52;4213496;83;28961;-78
2021/03/28 13:55:36;;;;;;;5.95;3.00;;;;;;;10.73;52.69;100412.84;4209311;84;28556;-78
2021/03/28 14:01:52;;;;;;;5.03;2.70;;;;;;;10.82;51.29;100413.50;4205723;83;28638;-79
2021/03/28 14:08:00;;;;;;;5.25;2.98;;;;;;;10.83;52.64;100405.23;4214501;83;28589;-80
2021/03/28 14:14:17;;;;;;;6.70;2.65;;;;;;;10.74;51.42;100402.39;4216593;83;28558;-78
2021/03/28 14:20:37;;;;;;;6.03;2.75;;;;;;;10.87;52.07;100409.17;4199925;83;28634;-79
2021/03/28 14:26:53;;;;;;;6.20;2.62;;;;;;;10.81;53.58;100403.27;4199748;83;28624;-80
2021/03/28 14:33:06;;;;;;;7.28;2.62;;;;;;;11.00;52.44;100404.38;4222451;83;28586;-79
2021/03/28 14:39:37;;;;;;;6.78;2.77;;;;;;;10.73;49.65;100410.99;4203660;83;28563;-79
2021/03/28 14:46:03;;;;;;;7.20;2.62;;;;;;;10.65;50.39;100406.27;4147658;84;28628;-79
2021/03/28 14:52:37;;;;;;;7.37;2.37;;;;;;;10.57;51.40;100405.91;4209359;83;28594;-79
2021/03/28 14:59:04;;;;;;;4.53;2.07;;;;;;;10.39;49.48;100409.89;4185535;84;28565;-80
2021/03/28 15:05:29;;;;;;;5.17;2.50;;;;;;;10.37;49.48;100401.73;4158814;84;28675;-79
2021/03/28 15:11:49;;;;;;;5.47;2.20;;;;;;;10.33;48.32;100400.76;4200533;83;28587;-82
2021/03/28 15:18:20;;;;;;;6.97;2.20;;;;;;;10.39;47.97;100405.05;4220232;83;28644;-81
2021/03/28 15:24:31;;;;;;;6.47;2.20;;;;;;;10.21;47.75;100410.39;4144169;84;28619;-81
2021/03/28 15:30:39;;;;;;;4.75;2.17;;;;;;;10.35;48.65;100403.27;4216178;84;28621;-86
2021/03/28 15:36:56;;;;;;;4.92;2.45;;;;;;;10.31;49.71;100404.16;4182068;84;28574;-85
2021/03/28 15:43:19;;;;;;;3.08;1.90;;;;;;;10.27;48.59;100411.47;4227068;81;28565;-84
2021/03/28 15:49:51;;;;;;;5.83;2.17;;;;;;;10.18;47.99;100397.35;4229477;83;28635;-88
2021/03/28 15:56:37;;;;;;;5.00;2.50;;;;;;;9.78;49.04;100405.06;4263670;81;28945;-77
2021/03/28 16:03:19;;;;;;;3.85;2.27;;;;;;;9.80;50.60;100404.36;4273916;81;28658;-86
2021/03/28 16:10:07;;;;;;;4.83;2.20;;;;;;;9.49;49.63;100399.09;4278708;83;28584;-84
2021/03/28 16:16:52;;;;;;;4.83;2.08;;;;;;;9.37;49.49;100391.23;4219946;83;28591;-85
2021/03/28 16:23:14;;;;;;;4.33;2.20;;;;;;;9.27;51.33;100391.55;4247232;84;28587;-82
2021/03/28 16:29:44;;;;;;;6.67;2.65;;;;;;;9.05;51.16;100392.00;4193193;83;28554;-82
2021/03/28 16:36:13;;;;;;;6.25;2.72;;;;;;;8.97;52.52;100402.34;4250182;82;28616;-84
2021/03/28 16:42:39;;;;;;;6.92;2.70;;;;;;;8.73;53.51;100400.77;4087520;84;28703;-83
2021/03/28 16:49:04;;;;;;;7.63;3.10;;;;;;;8.58;55.04;100401.59;4176186;84;28642;-85
2021/03/28 16:55:39;;;;;;;5.87;3.33;;;;;;;8.47;55.34;100398.84;4178704;84;28571;-83
2021/03/28 17:01:42;;;;;;;6.85;2.80;;;;;;;8.32;56.82;100393.46;4166961;84;28644;-82
2021/03/28 17:07:53;;;;;;;6.70;2.70;;;;;;;8.20;57.37;100402.44;4274856;82;28589;-83
2021/03/28 17:13:59;;;;;;;5.83;2.52;;;;;;;7.91;59.90;100400.04;4294889;81;28554;-84
2021/03/28 17:20:19;;;;;;;7.33;2.40;;;;;;;7.86;59.10;100411.78;4223592;83;28610;-83
2021/03/28 17:26:36;;;;;;;7.22;3.02;;;;;;;7.71;59.46;100409.04;4283964;81;28610;-83
2021/03/28 17:32:55;;;;;;;7.03;3.27;;;;;;;7.36;62.04;100413.96;4174559;84;28569;-81
2021/03/28 17:39:07;;;;;;;8.05;2.60;;;;;;;7.13;63.40;100416.06;4238204;82;28562;-83
2021/03/28 17:45:41;;;;;;;9.55;2.95;;;;;;;6.83;64.41;100414.02;4233417;82;28558;-83
2021/03/28 17:51:42;;;;;;;8.13;3.98;;;;;;;6.70;65.71;100413.22;4236003;82;28620;-84
2021/03/28 17:57:46;;;;;;;10.88;3.40;;;;;;;6.53;66.24;100416.44;4275844;81;28549;-83
2021/03/28 18:03:52;;;;;;;8.23;3.58;;;;;;;6.30;68.10;100418.16;4222190;83;28548;-83
2021/03/28 18:10:05;;;;;;;9.48;3.85;;;;;;;6.18;68.33;100432.34;4168472;84;28624;-83
2021/03/28 18:16:19;;;;;;;8.35;3.55;;;;;;;5.94;69.36;100438.00;4281822;81;28554;-83
2021/03/28 18:22:33;;;;;;;10.23;3.55;;;;;;;5.80;69.09;100436.81;4225037;83;28616;-83
2021/03/28 18:28:41;;;;;;;11.05;3.87;;;;;;;5.60;70.16;100437.63;4233395;82;28549;-82
2021/03/28 18:34:49;;;;;;;10.88;3.98;;;;;;;5.52;70.56;100442.42;4247273;82;28602;-82
2021/03/28 18:40:55;;;;;;;10.80;4.25;;;;;;;5.35;74.45;100445.55;4148433;84;28688;-82
2021/03/28 18:47:06;;;;;;;10.73;4.43;;;;;;;5.19;74.23;100450.33;4263968;82;28602;-82
2021/03/28 18:53:15;;;;;;;12.40;5.33;;;;;;;4.90;79.96;100452.38;4283037;82;28574;-81
2021/03/28 18:59:22;;;;;;;13.32;5.35;;;;;;;4.72;78.77;100450.61;4160451;84;28576;-82
2021/03/28 19:05:36;;;;;;;11.68;5.15;;;;;;;4.62;78.94;100458.39;4140642;84;28624;-79
2021/03/28 19:11:50;;;;;;;14.33;6.05;;;;;;;4.42;82.64;100461.26;4160745;84;28557;-81
2021/03/28 19:18:03;;;;;;;13.62;6.35;;;;;;;4.24;83.18;100465.30;4238288;82;28584;-82
2021/03/28 19:24:10;;;;;;;18.92;6.40;;;;;;;4.16;80.70;100462.89;4159371;84;28565;-82
2021/03/28 19:30:35;;;;;;;16.45;6.80;;;;;;;3.97;87.44;100469.71;4221544;83;28639;-82
2021/03/28 19:36:37;;;;;;;16.70;7.28;;;;;;;3.93;85.45;100469.17;4237723;82;28650;-81
2021/03/28 19:42:45;;;;;;;16.35;6.37;;;;;;;3.71;87.45;100465.98;4219097;83;28656;-81
2021/03/28 19:48:49;;;;;;;17.73;7.47;;;;;;;3.51;96.80;100461.77;4280534;81;28657;-81
2021/03/28 19:54:55;;;;;;;15.00;6.60;;;;;;;3.48;88.89;100465.56;4216691;83;28628;-80
2021/03/28 20:00:58;;;;;;;18.00;8.15;;;;;;;3.43;89.87;100467.34;4283155;82;28593;-82
2021/03/28 20:07:04;;;;;;;15.88;7.55;;;;;;;3.39;92.32;100473.12;4242919;82;28614;-81
2021/03/28 20:13:06;;;;;;;14.63;6.63;;;;;;;3.35;92.87;100470.75;4169690;84;28598;-80
2021/03/28 20:19:10;;;;;;;16.85;7.87;;;;;;;3.16;96.53;100474.35;4229777;83;28635;-87
2021/03/28 20:25:16;;;;;;;17.45;7.95;;;;;;;3.00;95.39;100485.61;4278193;81;28625;-82
2021/03/28 20:31:22;;;;;;;16.82;8.08;;;;;;;2.96;92.77;100483.39;4276246;82;28665;-88
2021/03/28 20:37:28;;;;;;;17.05;7.78;;;;;;;2.85;95.83;100485.23;4211484;83;28649;-84
2021/03/28 20:43:41;;;;;;;18.42;8.45;;;;;;;2.76;97.88;100494.92;4281189;81;28580;-87
2021/03/28 20:49:47;;;;;;;20.12;8.38;;;;;;;2.60;98.73;100493.34;4296217;81;28632;-86
2021/03/28 20:55:52;;;;;;;19.02;8.93;;;;;;;2.44;100.00;100496.08;4264429;81;28675;-85
2021/03/28 21:02:15;;;;;;;20.23;9.08;;;;;;;2.41;100.00;100496.88;4285484;81;28641;-83
2021/03/28 21:08:17;;;;;;;18.48;8.55;;;;;;;2.38;100.00;100505.95;4297418;81;28613;-86
2021/03/28 21:14:23;;;;;;;22.80;9.53;;;;;;;2.28;100.00;100503.80;4299845;81;28558;-84
2021/03/28 21:20:25;;;;;;;20.17;9.08;;;;;;;2.23;100.00;100508.20;4286860;81;28635;-85
2021/03/28 21:26:35;;;;;;;20.05;9.23;;;;;;;2.16;100.00;100508.40;4273129;81;28550;-84
2021/03/28 21:32:44;;;;;;;20.70;8.60;;;;;;;2.11;100.00;100507.48;4255434;81;28563;-84
2021/03/28 21:38:52;;;;;;;23.02;8.93;;;;;;;2.02;100.00;100505.19;4302558;81;28655;-85
2021/03/28 21:45:00;;;;;;;20.60;8.68;;;;;;;1.95;100.00;100515.52;4246255;81;28621;-88
2021/03/28 21:51:03;;;;;;;20.90;8.98;;;;;;;1.81;100.00;100519.41;4230565;81;28604;-83
2021/03/28 21:57:05;;;;;;;24.02;10.55;;;;;;;1.81;100.00;100515.44;4262204;81;28558;-85
2021/03/28 22:03:25;;;;;;;20.60;9.33;;;;;;;1.92;100.00;100510.98;4288241;81;28547;-85
2021/03/28 22:09:32;;;;;;;19.80;8.88;;;;;;;1.79;100.00;100503.28;4268703;81;28553;-84
2021/03/28 22:15:35;;;;;;;20.72;9.08;;;;;;;1.66;100.00;100504.38;4259368;83;28572;-85
2021/03/28 22:21:38;;;;;;;22.45;9.40;;;;;;;1.55;100.00;100504.97;4264124;83;28583;-84
2021/03/28 22:27:41;;;;;;;21.85;9.70;;;;;;;1.47;100.00;100499.03;4260333;81;28649;-84
2021/03/28 22:33:46;;;;;;;23.25;9.25;;;;;;;1.36;100.00;100505.30;4284489;81;28547;-84
2021/03/28 22:40:03;;;;;;;25.72;10.50;;;;;;;1.38;100.00;100509.97;4238629;81;28557;-84
2021/03/28 22:46:07;;;;;;;;;;;;;;;1.31;100.00;100503.05;4211075;83;28606;-83
2021/03/28 22:52:11;;;;;;;20.68;8.90;;;;;;;1.23;100.00;100497.07;4246817;81;20487;-83
2021/03/28 22:58:17;;;;;;;24.30;11.08;;;;;;;1.08;100.00;100495.27;4203986;83;28551;-83
2021/03/28 23:04:22;;;;;;;23.25;10.70;;;;;;;1.15;100.00;100496.92;4231564;83;28547;-83
2021/03/28 23:10:25;;;;;;;22.82;10.30;;;;;;;1.06;100.00;100505.67;4244119;81;28550;-83
2021/03/28 23:16:29;;;;;;;23.18;11.00;;;;;;;1.01;100.00;100504.74;4222864;82;28578;-83
2021/03/28 23:22:34;;;;;;;22.32;9.93;;;;;;;1.02;100.00;100502.91;4187613;83;44480;-83
2021/03/28 23:28:36;;;;;;;25.02;10.63;;;;;;;1.02;100.00;100498.47;4202510;84;28628;-83
2021/03/28 23:34:40;;;;;;;27.02;10.28;;;;;;;0.91;100.00;100503.86;4249935;81;28654;-84
2021/03/28 23:40:42;;;;;;;21.75;9.90;;;;;;;0.90;100.00;100491.59;4183735;82;28593;-84
2021/03/28 23:46:48;;;;;;;22.82;10.70;;;;;;;0.82;100.00;100486.45;4184924;84;28543;-84
2021/03/28 23:53:11;;;;;;;25.10;10.65;;;;;;;0.94;100.00;100485.89;4181062;84;28580;-84
2021/03/28 23:59:14;;;;;;;24.05;10.23;;;;;;;0.82;100.00;100490.43;4231409;84;28557;-82
